Terminal Aerodrome Forecast
Issued by NWS Boston, MA

Home | Current Version | Previous Version | Text Only | Print | Product List | Glossary On
Versions: 1 2 3 4 5 6 7 8 9 10 11 12 13 14 15 16 17 18 19 20 21 22 23 24 25 26 27 28 29 30 31 32 33 34 35 36 37 38 39 40 41 42
000
FTUS41 KBOX 232341
TAFPVD
TAF
KPVD 232341Z 2400/2424 16008KT P6SM BKN150
     FM240200 21005KT 6SM BR SCT015
     FM240300 22004KT 4SM BR SCT008 WS020/25035KT
     FM240500 22005KT 4SM BR BKN003
     FM240800 22004KT 3SM BR BKN025
     FM241100 21004KT 3SM BR BKN035
     FM241600 20006KT P6SM BKN150
     FM242000 20008KT P6SM BKN020=

USA.gov is the U.S. government's official web portal to all federal, state and local government web resources and services.